Time;durP1;ratioP1;P1;durP2;ratioP2;P2;SDS_P1;SDS_P2;PMS_P1;PMS_P2;Temp;Humidity;BMP_temperature;BMP_pressure;BME280_temperature;BME280_humidity;BME280_pressure;Samples;Min_cycle;Max_cycle;Signal;HPM_P1;HPM_P2
2022/05/13 00:01:59;;;;;;;;;2.50;1.00;;;;;17.56;61.85;101893.75;5037186;28;45348;-76
2022/05/13 00:04:24;;;;;;;;;1.00;1.00;;;;;17.56;61.48;101895.50;5037105;28;45277;-76
2022/05/13 00:06:50;;;;;;;;;0.00;0.00;;;;;17.54;61.78;101891.94;5019642;28;45525;-76
2022/05/13 00:09:15;;;;;;;;;1.75;1.00;;;;;17.54;61.43;101889.31;5036933;28;45416;-76
2022/05/13 00:11:41;;;;;;;;;0.75;0.75;;;;;17.52;61.70;101893.59;5037486;28;45191;-77
2022/05/13 00:14:08;;;;;;;;;1.00;1.00;;;;;17.48;61.77;101895.22;5036988;28;45463;-76
2022/05/13 00:16:35;;;;;;;;;1.00;1.00;;;;;17.41;62.32;101894.13;5037173;28;45473;-76
2022/05/13 00:19:06;;;;;;;;;1.00;0.75;;;;;17.40;62.52;101894.97;5036949;28;46246;-76
2022/05/13 00:21:32;;;;;;;;;1.00;1.00;;;;;17.38;63.38;101893.13;5036911;28;45682;-76
2022/05/13 00:23:58;;;;;;;;;1.75;1.00;;;;;17.35;63.08;101899.16;5037129;28;45325;-76
2022/05/13 00:26:24;;;;;;;;;1.75;0.75;;;;;17.33;63.63;101901.72;5019279;28;45238;-76
2022/05/13 00:28:50;;;;;;;;;0.75;0.75;;;;;17.32;63.85;101901.66;5036900;28;46143;-77
2022/05/13 00:31:15;;;;;;;;;2.75;1.50;;;;;17.28;62.65;101900.69;5036734;28;45478;-76
2022/05/13 00:33:41;;;;;;;;;2.00;1.00;;;;;17.24;62.64;101895.28;5037141;28;45315;-77
2022/05/13 00:36:06;;;;;;;;;0.00;0.00;;;;;17.21;62.55;101890.84;5019216;28;45647;-77
2022/05/13 00:38:32;;;;;;;;;1.00;1.00;;;;;17.16;62.56;101893.31;5036304;28;45500;-77
2022/05/13 00:40:58;;;;;;;;;1.25;0.50;;;;;17.11;62.99;101886.13;5036579;28;45384;-77
2022/05/13 00:43:52;;;;;;;;;1.00;1.00;;;;;17.09;62.63;101888.66;5036394;28;45502;-77
2022/05/13 00:46:22;;;;;;;;;1.00;1.00;;;;;17.06;63.54;101880.69;5036861;28;45391;-77
2022/05/13 00:48:48;;;;;;;;;1.50;1.00;;;;;17.05;63.01;101884.19;5036726;28;46627;-77
2022/05/13 00:51:33;;;;;;;;;2.00;1.00;;;;;17.01;62.40;101883.16;5036945;28;45245;-76
2022/05/13 00:53:59;;;;;;;;;2.00;1.00;;;;;17.02;62.42;101887.56;5036656;28;45289;-76
2022/05/13 00:56:25;;;;;;;;;1.00;1.00;;;;;17.00;62.77;101884.03;5018605;28;45477;-77
2022/05/13 00:58:56;;;;;;;;;1.00;1.00;;;;;16.97;62.77;101885.63;5036489;28;45467;-76
2022/05/13 01:01:22;;;;;;;;;0.50;0.50;;;;;16.93;62.99;101892.44;5036134;28;45823;-77
2022/05/13 01:03:49;;;;;;;;;2.00;0.75;;;;;16.91;63.19;101891.47;5036523;28;45296;-77
2022/05/13 01:06:20;;;;;;;;;1.00;1.00;;;;;16.89;63.49;101901.03;5036719;28;46028;-77
2022/05/13 01:08:47;;;;;;;;;1.00;0.50;;;;;16.87;62.77;101900.06;5036297;28;45326;-77
2022/05/13 01:11:19;;;;;;;;;2.00;2.00;;;;;16.86;62.73;101890.44;5036618;28;45623;-77
2022/05/13 01:13:56;;;;;;;;;0.00;0.00;;;;;16.82;62.88;101891.16;5035325;28;45396;-77
2022/05/13 01:16:22;;;;;;;;;2.25;1.00;;;;;16.79;63.35;101896.28;5036477;28;45198;-77
2022/05/13 01:18:48;;;;;;;;;2.00;1.00;;;;;16.74;63.49;101890.00;5036042;28;45376;-77
2022/05/13 01:21:20;;;;;;;;;2.25;1.25;;;;;16.70;63.59;101892.47;5036421;28;45278;-76
2022/05/13 01:23:46;;;;;;;;;1.00;1.00;;;;;16.69;63.76;101893.31;5036145;28;45531;-77
2022/05/13 01:26:17;;;;;;;;;2.50;1.00;;;;;16.65;63.95;101896.66;5036668;28;45269;-77
2022/05/13 01:28:49;;;;;;;;;1.00;1.00;;;;;16.61;64.02;101892.16;5036323;28;46408;-77
2022/05/13 01:31:23;;;;;;;;;1.00;0.00;;;;;16.55;64.59;101890.19;5035776;28;45782;-77
2022/05/13 01:33:49;;;;;;;;;1.00;1.00;;;;;16.53;64.87;101891.84;5036130;28;45364;-77
2022/05/13 01:36:15;;;;;;;;;1.75;1.00;;;;;16.50;64.60;101899.59;5036384;28;45511;-77
2022/05/13 01:38:42;;;;;;;;;3.00;1.00;;;;;16.46;65.11;101900.31;5035949;28;46000;-77
2022/05/13 01:41:11;;;;;;;;;3.25;2.00;;;;;16.44;65.63;101899.34;5017943;28;45353;-77
2022/05/13 01:43:37;;;;;;;;;1.25;1.25;;;;;16.45;65.80;101903.75;5035826;28;45246;-77
2022/05/13 01:46:03;;;;;;;;;0.75;0.75;;;;;16.44;65.42;101904.56;5036176;28;45209;-77
2022/05/13 01:48:29;;;;;;;;;1.50;1.00;;;;;16.44;65.27;101903.69;5035361;28;46008;-77
2022/05/13 01:50:55;;;;;;;;;1.00;1.00;;;;;16.43;65.39;101894.94;5035779;28;46403;-77
2022/05/13 01:53:21;;;;;;;;;2.00;1.25;;;;;16.43;64.91;101894.94;5035372;28;45364;-77
2022/05/13 01:55:47;;;;;;;;;0.25;0.25;;;;;16.42;65.00;101892.28;5036146;28;45530;-77
2022/05/13 01:58:18;;;;;;;;;0.75;0.75;;;;;16.41;65.16;101888.81;5035862;28;46268;-77
2022/05/13 02:00:46;;;;;;;;;0.50;0.50;;;;;16.40;64.93;101884.41;5035889;28;45763;-77
2022/05/13 02:05:56;;;;;;;;;0.00;0.00;;;;;16.40;65.03;101884.41;5035929;28;45307;-77
2022/05/13 02:08:22;;;;;;;;;1.75;1.00;;;;;16.38;65.49;101894.78;5035359;28;45343;-77
2022/05/13 02:10:48;;;;;;;;;1.25;0.75;;;;;16.39;65.40;101893.94;5017573;28;45446;-77
2022/05/13 02:13:14;;;;;;;;;1.00;1.00;;;;;16.39;65.81;101893.06;5036052;28;45472;-77
2022/05/13 02:15:40;;;;;;;;;0.00;0.00;;;;;16.41;65.96;101888.81;5035998;28;45462;-77
2022/05/13 02:18:07;;;;;;;;;1.50;1.00;;;;;16.39;65.82;101893.06;5035410;28;45467;-77
2022/05/13 02:20:33;;;;;;;;;1.25;1.25;;;;;16.38;66.91;101894.78;5035252;28;45783;-77
2022/05/13 02:22:59;;;;;;;;;1.25;1.00;;;;;16.39;66.67;101896.56;5035357;28;45320;-77
2022/05/13 02:25:25;;;;;;;;;1.75;1.75;;;;;16.39;67.05;101893.06;5037384;28;45227;-77
2022/05/13 02:27:51;;;;;;;;;1.00;1.00;;;;;16.43;67.68;101900.19;5038906;28;46058;-77
2022/05/13 02:30:17;;;;;;;;;2.50;1.75;;;;;16.44;67.79;101899.34;5038478;28;45442;-77
2022/05/13 02:32:42;;;;;;;;;1.50;0.75;;;;;16.44;67.58;101901.09;5039208;28;45477;-77
2022/05/13 02:35:09;;;;;;;;;2.00;2.00;;;;;16.42;68.25;101892.28;5039159;28;45424;-77
2022/05/13 02:37:35;;;;;;;;;3.00;1.75;;;;;16.39;68.17;101895.69;5038428;28;46509;-77
2022/05/13 02:40:00;;;;;;;;;5.00;3.00;;;;;16.39;67.76;101898.28;5020682;28;45409;-77
2022/05/13 02:42:27;;;;;;;;;2.75;2.75;;;;;16.37;68.52;101899.97;5038418;28;45183;-77
2022/05/13 02:44:53;;;;;;;;;4.00;2.00;;;;;16.32;68.73;101894.56;5038940;28;45614;-77
2022/05/13 02:47:18;;;;;;;;;1.00;1.00;;;;;16.23;68.89;101894.19;5037953;28;45520;-77
2022/05/13 02:49:44;;;;;;;;;4.50;1.75;;;;;16.15;69.15;101893.91;5038773;28;45369;-77
2022/05/13 02:52:11;;;;;;;;;1.50;1.50;;;;;16.15;68.72;101893.00;5038907;28;45285;-77
2022/05/13 02:54:37;;;;;;;;;2.75;1.75;;;;;16.13;69.30;101900.78;5038341;28;45277;-77
2022/05/13 02:57:03;;;;;;;;;2.00;1.00;;;;;16.11;69.03;101894.59;5038305;28;45669;-77
2022/05/13 02:59:29;;;;;;;;;3.25;0.75;;;;;16.11;69.11;101894.59;5038152;28;45912;-77
2022/05/13 03:01:55;;;;;;;;;2.50;1.50;;;;;16.08;68.37;101892.75;5038626;28;45404;-77
2022/05/13 03:04:22;;;;;;;;;2.75;2.00;;;;;16.04;68.46;101889.97;5038299;28;45378;-77
2022/05/13 03:06:48;;;;;;;;;1.00;1.00;;;;;15.99;68.36;101896.72;5037952;28;45364;-77
2022/05/13 03:09:13;;;;;;;;;3.75;1.75;;;;;15.94;68.76;101892.22;5038426;28;45290;-77
2022/05/13 03:11:39;;;;;;;;;2.00;2.00;;;;;15.96;68.79;101900.09;5037968;28;45288;-77
2022/05/13 03:14:04;;;;;;;;;2.75;1.75;;;;;15.91;68.30;101894.69;5020415;28;45483;-77
2022/05/13 03:16:30;;;;;;;;;1.00;1.00;;;;;15.92;68.29;101890.38;5037829;28;45878;-77
2022/05/13 03:18:59;;;;;;;;;2.00;1.50;;;;;15.89;68.35;101896.34;5038078;28;45490;-77
2022/05/13 03:21:26;;;;;;;;;1.25;1.25;;;;;15.90;68.21;101900.75;5038008;28;45395;-77
2022/05/13 03:23:52;;;;;;;;;4.25;1.75;;;;;15.90;68.68;101899.88;5038212;28;45464;-77
2022/05/13 03:26:20;;;;;;;;;3.25;2.75;;;;;15.86;69.56;101887.50;5037605;28;45268;-77
2022/05/13 03:28:47;;;;;;;;;3.75;2.00;;;;;15.78;69.67;101890.69;5037875;28;45442;-77
2022/05/13 03:31:13;;;;;;;;;2.50;1.25;;;;;15.74;70.14;101896.59;5038338;28;45340;-77
2022/05/13 03:33:39;;;;;;;;;4.25;4.25;;;;;15.73;69.77;101888.69;5037789;28;45582;-77
2022/05/13 03:36:06;;;;;;;;;2.00;1.75;;;;;15.73;70.72;101892.19;5037427;28;46594;-77
2022/05/13 03:38:32;;;;;;;;;8.25;7.50;;;;;15.72;71.30;101898.25;5037409;28;45858;-77
2022/05/13 03:40:58;;;;;;;;;8.25;7.25;;;;;15.69;71.43;101892.91;5037801;28;45282;-77
2022/05/13 03:43:24;;;;;;;;;7.00;5.75;;;;;15.69;71.57;101892.91;5037741;28;45302;-77
2022/05/13 03:45:50;;;;;;;;;12.25;6.50;;;;;15.67;72.23;101893.66;5037536;28;46083;-77
2022/05/13 03:48:16;;;;;;;;;7.50;5.75;;;;;15.66;72.14;101890.16;5019500;28;45376;-77
2022/05/13 03:50:44;;;;;;;;;5.75;5.75;;;;;15.64;72.12;101894.44;5037942;28;45546;-77
2022/05/13 03:53:10;;;;;;;;;8.75;7.25;;;;;15.65;72.58;101896.22;5038133;28;45529;-77
2022/05/13 03:55:36;;;;;;;;;9.00;8.25;;;;;15.66;72.71;101903.22;5037166;28;45252;-77
2022/05/13 03:58:03;;;;;;;;;4.50;4.50;;;;;15.66;72.61;101902.34;5019621;28;45260;-77
2022/05/13 04:00:29;;;;;;;;;7.25;4.75;;;;;15.65;72.39;101900.56;5037275;28;45418;-77
2022/05/13 04:02:55;;;;;;;;;7.25;5.00;;;;;15.63;71.79;101908.31;5037579;28;45637;-77
2022/05/13 04:10:50;;;;;;;;;4.25;3.50;;;;;15.65;71.65;101896.22;5037447;28;45457;-77
2022/05/13 04:16:06;;;;;;;;;8.75;5.75;;;;;15.63;71.35;101897.88;5036933;28;45778;-77
2022/05/13 04:18:38;;;;;;;;;6.00;6.00;;;;;15.63;71.22;101900.47;5036869;28;45234;-77
2022/05/13 04:21:06;;;;;;;;;4.00;4.00;;;;;15.60;71.08;101905.59;5037330;28;45279;-77
2022/05/13 04:23:38;;;;;;;;;5.75;5.75;;;;;15.57;71.34;101908.94;5037082;28;45621;-77
2022/05/13 04:26:04;;;;;;;;;4.75;4.50;;;;;15.53;70.55;101904.44;5018944;28;46976;-77
2022/05/13 04:28:30;;;;;;;;;4.50;4.00;;;;;15.50;70.77;101911.22;5036603;28;45313;-77
2022/05/13 04:30:58;;;;;;;;;4.50;4.50;;;;;15.46;70.76;101916.34;5037024;28;45371;-77
2022/05/13 04:33:24;;;;;;;;;5.00;3.75;;;;;15.48;71.01;101924.22;5036980;28;45608;-77
2022/05/13 04:35:49;;;;;;;;;2.50;2.50;;;;;15.50;71.47;101914.75;5036935;28;46323;-77
2022/05/13 04:38:15;;;;;;;;;4.25;4.25;;;;;15.50;71.36;101924.28;5036554;28;45451;-77
2022/05/13 04:40:41;;;;;;;;;6.50;2.75;;;;;15.48;71.40;101921.59;5019246;28;45404;-77
2022/05/13 04:43:07;;;;;;;;;4.75;3.25;;;;;15.45;72.20;101930.22;5037128;28;45292;-77
2022/05/13 04:45:33;;;;;;;;;3.00;3.00;;;;;15.40;72.43;101923.88;5036356;28;45938;-77
2022/05/13 04:48:16;;;;;;;;;4.25;4.25;;;;;15.41;72.19;101925.66;5042820;28;45941;-77
2022/05/13 04:50:58;;;;;;;;;4.00;3.25;;;;;15.43;71.96;101924.03;5057277;28;45401;-77
2022/05/13 04:53:27;;;;;;;;;4.50;4.25;;;;;15.43;72.46;101926.63;5025223;28;45498;-77
2022/05/13 04:55:54;;;;;;;;;3.75;3.00;;;;;15.48;72.45;101934.66;5035944;28;46677;-77
2022/05/13 04:58:22;;;;;;;;;3.50;3.50;;;;;15.47;73.04;101931.16;5035677;28;45365;-77
2022/05/13 05:00:52;;;;;;;;;15.00;14.25;;;;;15.46;72.80;101937.22;5036206;28;45301;-77
2022/05/13 05:03:19;;;;;;;;;3.00;3.00;;;;;15.50;72.93;101938.22;5036077;28;45391;-77
2022/05/13 05:05:45;;;;;;;;;5.25;3.25;;;;;15.48;73.12;101945.09;5036130;28;45380;-77
2022/05/13 05:08:11;;;;;;;;;3.75;2.75;;;;;15.47;72.75;101941.59;5036322;28;45416;-77
2022/05/13 05:10:38;;;;;;;;;2.50;2.00;;;;;15.43;73.83;101946.63;5035876;28;45360;-77
2022/05/13 05:13:07;;;;;;;;;2.00;2.00;;;;;15.40;73.91;101944.75;5038780;28;45498;-77
2022/05/13 05:15:34;;;;;;;;;3.75;2.50;;;;;15.39;74.18;101940.38;5017768;28;45709;-77
2022/05/13 05:17:59;;;;;;;;;4.75;3.00;;;;;15.36;74.42;101944.56;5036085;28;45294;-77
2022/05/13 05:20:25;;;;;;;;;3.50;3.00;;;;;15.30;74.65;101953.94;5036081;28;45356;-77
2022/05/13 05:22:51;;;;;;;;;2.25;2.25;;;;;15.28;74.99;101955.56;5036366;28;45502;-76
2022/05/13 05:25:19;;;;;;;;;7.00;4.00;;;;;15.26;76.16;101954.59;5036078;28;46203;-77
2022/05/13 05:27:44;;;;;;;;;4.00;3.50;;;;;15.22;76.51;101960.53;5018324;28;45326;-77
2022/05/13 05:30:11;;;;;;;;;4.25;4.00;;;;;15.22;77.63;101960.53;5035976;28;45256;-77
2022/05/13 05:32:38;;;;;;;;;5.00;4.00;;;;;15.21;77.36;101957.84;5046254;28;45527;-76
2022/05/13 05:35:06;;;;;;;;;9.50;8.50;;;;;15.22;77.99;101957.00;5017497;28;46061;-77
2022/05/13 05:37:33;;;;;;;;;5.00;3.75;;;;;15.23;77.98;101961.41;5034480;28;45768;-77
2022/05/13 05:39:58;;;;;;;;;4.50;3.00;;;;;15.20;78.81;101975.22;5028241;28;45252;-77
2022/05/13 05:42:24;;;;;;;;;3.50;3.25;;;;;15.19;78.68;101970.81;5030261;28;45172;-77
2022/05/13 05:44:50;;;;;;;;;4.50;3.75;;;;;15.17;81.06;101975.94;5022781;28;45456;-77
2022/05/13 05:47:16;;;;;;;;;4.00;4.00;;;;;15.14;80.08;101977.53;5012660;28;45611;-77
2022/05/13 05:49:42;;;;;;;;;3.50;3.00;;;;;15.09;80.48;101977.31;5034918;28;45409;-78
2022/05/13 05:52:09;;;;;;;;;2.75;2.25;;;;;15.04;81.04;101981.47;5036580;28;45399;-77
2022/05/13 05:57:22;;;;;;;;;3.00;3.00;;;;;14.95;82.73;101988.88;5017599;28;45440;-75
2022/05/13 05:59:48;;;;;;;;;4.00;3.00;;;;;14.91;81.83;101990.41;5036612;28;45234;-77
2022/05/13 06:02:15;;;;;;;;;2.00;2.00;;;;;14.89;83.13;101988.56;5021512;28;45692;-81
2022/05/13 06:04:41;;;;;;;;;2.00;2.00;;;;;14.89;83.75;101988.56;5039091;28;45907;-78
2022/05/13 06:07:10;;;;;;;;;6.00;3.00;;;;;14.88;84.59;101989.38;5036063;28;45910;-84
2022/05/13 06:09:37;;;;;;;;;4.00;4.00;;;;;14.92;84.89;101994.81;5025617;28;45324;-80
2022/05/13 06:12:06;;;;;;;;;6.00;4.50;;;;;14.95;84.64;101999.31;5049187;28;45403;-78
2022/05/13 06:14:31;;;;;;;;;3.00;3.00;;;;;14.96;83.91;102001.97;5038848;28;45479;-82
2022/05/13 06:16:57;;;;;;;;;4.00;3.00;;;;;14.98;85.41;102007.25;5031941;28;45486;-78
2022/05/13 06:19:23;;;;;;;;;5.00;3.75;;;;;15.00;85.48;102008.22;5018993;28;45423;-80
2022/05/13 06:21:49;;;;;;;;;4.00;4.00;;;;;14.97;85.92;101998.53;5026773;28;45531;-80
2022/05/13 06:24:15;;;;;;;;;6.00;4.00;;;;;15.02;85.86;102010.06;5030418;28;45321;-79
2022/05/13 06:26:41;;;;;;;;;5.75;4.00;;;;;15.00;86.39;102008.22;5038961;28;45805;-78
2022/05/13 06:29:07;;;;;;;;;4.25;3.75;;;;;15.01;85.98;102015.22;5020016;28;45375;-80
2022/05/13 06:31:34;;;;;;;;;8.75;4.75;;;;;15.03;86.97;102010.97;5028984;28;45468;-79
2022/05/13 06:34:00;;;;;;;;;4.75;4.75;;;;;15.05;87.41;102009.34;5019283;28;47914;-79
2022/05/13 06:36:26;;;;;;;;;4.25;3.00;;;;;15.08;85.99;102017.28;5035521;28;45545;-79
2022/05/13 06:38:52;;;;;;;;;3.25;3.25;;;;;15.11;86.77;102017.44;5021106;28;45385;-79
2022/05/13 06:41:17;;;;;;;;;5.25;3.75;;;;;15.10;86.95;102020.84;5030798;28;45338;-80
2022/05/13 06:43:45;;;;;;;;;2.00;2.00;;;;;15.15;86.44;102016.75;5035440;28;45454;-77
2022/05/13 06:46:10;;;;;;;;;4.00;4.00;;;;;15.22;85.95;102020.53;5035157;28;45385;-80
2022/05/13 06:48:37;;;;;;;;;4.25;4.00;;;;;15.27;85.91;102020.75;5033036;28;45450;-79
2022/05/13 06:51:05;;;;;;;;;3.00;3.00;;;;;15.26;86.19;102025.03;5035828;28;45496;-85
2022/05/13 06:53:31;;;;;;;;;4.50;4.00;;;;;15.27;85.30;102032.06;5017314;28;45569;-90
2022/05/13 06:55:57;;;;;;;;;4.00;3.75;;;;;15.35;86.26;102034.09;5039632;28;45398;-81
2022/05/13 06:58:22;;;;;;;;;6.00;4.00;;;;;15.38;85.52;102039.47;5037948;28;45371;-82
2022/05/13 07:00:48;;;;;;;;;5.00;4.00;;;;;15.35;85.49;102035.00;5038674;28;45307;-81
2022/05/13 07:03:16;;;;;;;;;5.50;4.25;;;;;15.37;85.17;102035.97;5037941;28;45979;-81
2022/05/13 07:05:43;;;;;;;;;4.00;3.00;;;;;15.44;84.92;102032.81;5034987;28;45178;-81
2022/05/13 07:08:09;;;;;;;;;5.25;4.25;;;;;15.46;83.41;102035.47;5032366;28;45654;-81
2022/05/13 07:10:35;;;;;;;;;3.25;3.00;;;;;15.49;82.28;102038.22;5036570;28;45623;-81
2022/05/13 07:13:04;;;;;;;;;2.25;2.00;;;;;15.54;81.80;102043.66;5034724;28;45522;-80
2022/05/13 07:15:30;;;;;;;;;3.00;3.00;;;;;15.56;81.84;102042.00;5037550;28;46232;-81
2022/05/13 07:17:56;;;;;;;;;4.25;2.50;;;;;15.57;80.98;102043.81;5020189;28;45353;-81
2022/05/13 07:20:23;;;;;;;;;3.00;2.00;;;;;15.63;81.57;102046.66;5037883;28;45212;-80
2022/05/13 07:22:49;;;;;;;;;3.75;3.75;;;;;15.66;81.04;102043.31;5036436;28;46756;-81
2022/05/13 07:25:15;;;;;;;;;3.00;3.00;;;;;15.68;80.49;102039.94;5017784;28;45353;-81
2022/05/13 07:27:40;;;;;;;;;1.50;1.50;;;;;15.74;80.27;102037.59;5017997;28;45345;-83
2022/05/13 07:30:07;;;;;;;;;3.50;1.75;;;;;15.78;79.60;102028.16;5000426;28;45388;-82
2022/05/13 07:32:33;;;;;;;;;20.50;17.50;;;;;15.80;79.44;102034.34;5023804;28;46453;-83
2022/05/13 07:34:59;;;;;;;;;9.25;6.75;;;;;15.81;79.52;102035.25;5019473;28;45285;-81
2022/05/13 07:37:28;;;;;;;;;2.50;2.00;;;;;15.86;79.38;102046.81;5018464;28;45613;-82
2022/05/13 07:42:39;;;;;;;;;1.50;0.50;;;;;15.88;79.93;102048.66;5023309;28;45794;-81
2022/05/13 07:45:07;;;;;;;;;4.50;2.75;;;;;15.89;79.63;102046.94;5022041;28;45534;-82
2022/05/13 07:47:34;;;;;;;;;3.25;2.25;;;;;15.87;79.36;102052.13;5018614;28;45321;-82
2022/05/13 07:50:01;;;;;;;;;2.75;1.75;;;;;15.88;79.39;102058.22;5001196;28;45471;-81
2022/05/13 07:52:27;;;;;;;;;1.00;1.00;;;;;15.89;79.66;102057.41;5018104;28;45574;-81
2022/05/13 07:54:52;;;;;;;;;1.50;1.50;;;;;15.91;79.44;102059.25;5017686;28;45300;-80
2022/05/13 07:57:19;;;;;;;;;1.00;1.00;;;;;15.91;79.34;102059.25;5019064;28;45345;-80
2022/05/13 08:02:29;;;;;;;;;1.50;1.50;;;;;15.97;80.70;102047.28;5020157;28;45658;-81
2022/05/13 08:04:55;;;;;;;;;2.50;2.00;;;;;15.99;81.00;102048.22;5035906;28;45772;-82
2022/05/13 08:07:22;;;;;;;;;3.25;2.75;;;;;16.01;80.86;102052.69;5028288;28;46126;-80
2022/05/13 08:09:47;;;;;;;;;4.50;2.00;;;;;16.05;80.69;102051.09;5036097;28;45435;-82
2022/05/13 08:12:13;;;;;;;;;3.25;3.00;;;;;16.05;80.48;102054.59;5035127;28;46145;-82
2022/05/13 08:14:38;;;;;;;;;2.50;2.50;;;;;16.08;81.78;102043.41;5018383;28;45540;-81
2022/05/13 08:17:04;;;;;;;;;2.50;2.00;;;;;16.12;81.25;102054.88;5018393;28;45272;-81
2022/05/13 08:19:30;;;;;;;;;2.75;2.50;;;;;16.17;81.67;102054.25;5037436;28;45484;-79
2022/05/13 08:21:56;;;;;;;;;2.00;2.00;;;;;16.28;80.74;102046.81;5037177;28;45448;-81
2022/05/13 08:24:21;;;;;;;;;4.25;2.00;;;;;16.34;78.69;102041.88;5023686;28;45274;-81
2022/05/13 08:26:47;;;;;;;;;3.00;3.00;;;;;16.38;78.58;102043.75;5018382;28;45475;-81
2022/05/13 08:29:13;;;;;;;;;4.00;3.00;;;;;16.41;78.24;102032.56;5026460;28;45547;-81
2022/05/13 08:31:38;;;;;;;;;1.50;1.00;;;;;16.45;76.68;102037.06;5036779;28;45930;-81
2022/05/13 08:34:04;;;;;;;;;3.25;2.25;;;;;16.46;73.18;102044.06;5036209;28;45435;-81
2022/05/13 08:36:30;;;;;;;;;1.75;0.75;;;;;16.51;70.57;102039.03;5036590;28;45230;-82
2022/05/13 08:38:56;;;;;;;;;1.50;1.50;;;;;16.51;71.12;102045.16;5037415;28;45339;-83
2022/05/13 08:41:43;;;;;;;;;0.50;0.50;;;;;16.53;71.86;102040.88;5036327;28;45517;-80
2022/05/13 08:44:13;;;;;;;;;1.50;1.50;;;;;16.60;72.16;102042.00;5036456;28;45341;-82
2022/05/13 08:46:43;;;;;;;;;1.75;0.50;;;;;16.67;72.52;102049.28;5036656;28;45313;-81
2022/05/13 08:49:29;;;;;;;;;5.00;2.00;;;;;16.73;68.00;102050.34;5036433;28;45557;-82
2022/05/13 08:54:59;;;;;;;;;0.50;0.50;;;;;16.72;67.49;102044.22;5035980;28;45316;-80
2022/05/13 08:57:31;;;;;;;;;1.00;0.75;;;;;16.74;60.93;102046.91;5005355;28;45761;-78
2022/05/13 09:00:08;;;;;;;;;1.75;0.75;;;;;16.71;61.56;102042.44;5029560;28;45601;-79
2022/05/13 09:02:37;;;;;;;;;0.75;0.75;;;;;16.74;60.04;102042.53;5034165;28;45503;-81
2022/05/13 09:05:27;;;;;;;;;0.50;0.50;;;;;16.77;58.07;102040.06;5017321;28;45265;-81
2022/05/13 09:07:55;;;;;;;;;0.00;0.00;;;;;16.77;58.36;102041.81;5035871;28;45422;-81
2022/05/13 09:10:24;;;;;;;;;0.00;0.00;;;;;16.79;55.69;102045.38;5021931;28;45394;-82
2022/05/13 09:12:57;;;;;;;;;1.75;0.25;;;;;16.78;53.45;102038.34;5036276;28;45541;-83
2022/05/13 09:15:38;;;;;;;;;0.25;0.25;;;;;16.83;54.46;102042.03;5031266;28;45781;-81
2022/05/13 09:18:33;;;;;;;;;6.25;4.75;;;;;16.81;55.96;102028.91;5039220;28;45329;-85
2022/05/13 09:21:02;;;;;;;;;1.25;1.25;;;;;16.94;57.08;102037.25;5036662;28;45594;-85
2022/05/13 09:23:28;;;;;;;;;2.00;2.00;;;;;16.99;57.58;102033.06;5031864;28;45558;-83
2022/05/13 09:26:09;;;;;;;;;2.25;1.25;;;;;17.06;57.72;102035.06;5035490;28;45518;-85
2022/05/13 09:28:37;;;;;;;;;0.75;0.75;;;;;17.13;58.65;102036.19;5035246;28;45615;-83
2022/05/13 09:31:21;;;;;;;;;1.75;1.75;;;;;17.15;59.78;102034.53;5035103;28;45757;-84
2022/05/13 09:33:49;;;;;;;;;2.00;1.00;;;;;17.20;59.88;102037.31;5034107;28;46319;-83
2022/05/13 09:36:26;;;;;;;;;1.00;0.75;;;;;17.24;60.17;102029.66;5034821;28;45674;-83
2022/05/13 09:39:15;;;;;;;;;1.25;1.25;;;;;17.31;60.68;102043.84;5017423;28;45498;-88
2022/05/13 09:41:44;;;;;;;;;2.25;2.00;;;;;17.40;58.24;102035.44;5037643;28;45483;-88
2022/05/13 09:44:13;;;;;;;;;1.00;1.00;;;;;17.44;58.02;102048.72;5040057;28;45538;-88
2022/05/13 09:46:50;;;;;;;;;1.75;0.75;;;;;17.43;58.25;102040.81;5049271;28;45763;-87
2022/05/13 09:49:38;;;;;;;;;4.75;2.00;;;;;17.40;59.24;102044.19;5027542;28;45483;-81
2022/05/13 09:52:14;;;;;;;;;0.75;0.75;;;;;17.38;59.34;102035.41;5052582;28;45175;-88
2022/05/13 09:54:43;;;;;;;;;1.50;1.00;;;;;17.39;59.37;102037.16;5050709;28;45450;-85
2022/05/13 09:57:14;;;;;;;;;1.25;1.00;;;;;17.42;59.85;102028.56;5041509;28;45881;-81
2022/05/13 10:00:01;;;;;;;;;1.25;1.00;;;;;17.49;58.84;102030.53;5039866;28;45381;-85
2022/05/13 10:02:40;;;;;;;;;0.75;0.75;;;;;17.53;58.29;102029.84;5039176;28;45347;-83
2022/05/13 10:05:21;;;;;;;;;2.50;1.00;;;;;17.61;57.54;102031.00;5017959;28;45463;-87
2022/05/13 10:07:52;;;;;;;;;1.00;1.00;;;;;17.70;57.35;102021.66;5019220;28;45300;-85
2022/05/13 10:16:22;;;;;;;;;2.00;2.00;;;;;17.88;56.36;102027.53;5037565;28;45723;-88
2022/05/13 10:19:20;;;;;;;;;1.00;1.00;;;;;17.91;56.95;102024.16;5041037;28;45569;-81
2022/05/13 10:22:15;;;;;;;;;2.00;2.00;;;;;17.92;56.84;102016.31;5018244;28;45285;-86
2022/05/13 10:24:51;;;;;;;;;2.25;1.00;;;;;17.91;57.16;102017.16;5006447;28;45478;-83
2022/05/13 10:27:23;;;;;;;;;3.00;1.25;;;;;17.89;57.59;102013.59;5047876;28;46175;-81
2022/05/13 10:29:54;;;;;;;;;3.75;3.00;;;;;17.92;58.29;102018.06;5049259;28;45806;-84
2022/05/13 10:32:26;;;;;;;;;5.00;4.75;;;;;17.90;57.60;102022.38;5030628;28;45439;-81
2022/05/13 10:34:56;;;;;;;;;3.00;3.00;;;;;17.86;56.35;102017.84;5017884;28;45456;-80
2022/05/13 10:38:02;;;;;;;;;4.50;2.00;;;;;17.84;55.82;102017.81;5045811;28;46210;-80
2022/05/13 10:40:35;;;;;;;;;2.75;2.00;;;;;17.81;56.34;102008.94;5032655;28;45972;-81
2022/05/13 10:43:19;;;;;;;;;3.75;2.00;;;;;17.81;56.09;102012.44;5031061;28;45650;-80
2022/05/13 10:45:45;;;;;;;;;1.00;1.00;;;;;17.83;56.22;102002.00;5035251;28;45353;-80
2022/05/13 10:48:28;;;;;;;;;1.00;1.00;;;;;17.84;55.71;102007.31;5037550;28;46208;-80
2022/05/13 10:51:24;;;;;;;;;2.25;1.75;;;;;17.86;55.76;101996.88;5020125;28;45622;-79
2022/05/13 10:54:16;;;;;;;;;5.75;5.00;;;;;17.89;56.84;101999.63;5038214;28;45447;-80
2022/05/13 10:56:58;;;;;;;;;1.50;1.00;;;;;17.89;56.27;101979.53;5037541;28;45542;-81
2022/05/13 10:59:42;;;;;;;;;1.00;1.00;;;;;17.95;56.35;101986.72;5034243;28;45771;-81
2022/05/13 11:02:27;;;;;;;;;1.75;1.00;;;;;17.98;56.75;101984.22;5016559;28;45711;-79
2022/05/13 11:05:31;;;;;;;;;2.00;1.00;;;;;18.04;57.13;101986.16;5018865;28;45344;-81
2022/05/13 11:08:16;;;;;;;;;4.00;2.00;;;;;18.07;56.27;101987.16;5010542;28;45788;-80
2022/05/13 11:11:12;;;;;;;;;3.00;2.00;;;;;18.16;54.82;101991.81;5019891;28;46826;-80
2022/05/13 11:14:15;;;;;;;;;4.25;2.50;;;;;18.18;55.39;101981.38;5020574;28;45414;-80
2022/05/13 11:16:49;;;;;;;;;0.50;0.25;;;;;18.22;54.85;101988.50;5036988;28;45498;-81
2022/05/13 11:19:30;;;;;;;;;3.25;1.75;;;;;18.28;54.72;101986.06;5038105;28;45233;-80
2022/05/13 11:22:29;;;;;;;;;1.00;1.00;;;;;18.27;54.40;101984.28;5038263;28;45707;-80
2022/05/13 11:28:15;;;;;;;;;3.25;2.00;;;;;18.30;54.61;101987.00;5036502;28;45424;-78
2022/05/13 11:30:47;;;;;;;;;2.00;1.00;;;;;18.33;54.11;101987.13;5038337;28;45418;-80
2022/05/13 11:33:15;;;;;;;;;1.75;0.75;;;;;18.32;54.07;101984.41;5037011;28;46007;-78
2022/05/13 11:35:54;;;;;;;;;2.25;2.00;;;;;18.34;54.42;101985.38;5036101;28;45983;-79
2022/05/13 11:38:35;;;;;;;;;3.00;1.50;;;;;18.39;54.61;101976.81;5020140;28;45326;-79
2022/05/13 11:41:10;;;;;;;;;2.00;2.00;;;;;18.48;54.67;101976.22;5004919;28;45489;-79
2022/05/13 11:43:54;;;;;;;;;1.75;1.75;;;;;18.55;54.07;101980.78;5002012;28;45522;-79
2022/05/13 11:46:34;;;;;;;;;2.50;1.25;;;;;18.63;53.41;101967.00;5037187;28;45752;-79
2022/05/13 11:49:29;;;;;;;;;2.00;2.00;;;;;18.72;53.61;101976.06;5037289;28;45272;-79
2022/05/13 11:52:02;;;;;;;;;3.00;2.00;;;;;18.83;53.60;101978.09;5039045;28;45558;-79
2022/05/13 11:54:30;;;;;;;;;1.25;1.25;;;;;18.86;53.18;101976.47;5037241;28;45272;-79
2022/05/13 11:57:18;;;;;;;;;2.00;2.00;;;;;18.94;53.05;101970.59;5036501;28;45271;-79
2022/05/13 11:59:47;;;;;;;;;1.00;1.00;;;;;18.98;53.71;101964.56;5020069;28;45351;-79
2022/05/13 12:02:29;;;;;;;;;3.25;2.75;;;;;19.02;53.70;101969.94;5037450;28;45250;-79
2022/05/13 12:05:05;;;;;;;;;4.50;1.75;;;;;19.08;51.54;101963.09;5037152;28;45635;-81
2022/05/13 12:07:53;;;;;;;;;1.00;1.00;;;;;19.11;52.41;101963.22;5037692;28;45884;-80
2022/05/13 12:10:40;;;;;;;;;3.00;2.25;;;;;19.14;50.57;101963.25;5036917;28;45367;-79